Data for 10/01/2016

Time Sea-Level Adjusted Pressure Absolute Pressure Temperature Relative Humidity Dew Point   
(mb) (inHg) (mb) (inHg) (C) (F) (%) (C) (F)
00:05 1020 30.12 849 25.07 13.9 57 49 3.5 38.3
00:10 1020 30.12 849 25.07 13.8 56.8 49 3.4 38
00:15 1019 30.09 849 25.07 13.8 56.8 50 3.5 38.4
00:20 1019 30.09 849 25.07 13.6 56.4 51 3.6 38.6
00:25 1019 30.09 849 25.07 13.4 56.2 52 3.7 38.7
00:30 1019 30.09 849 25.07 13.6 56.4 50 3.5 38.3
00:35 1019 30.09 849 25.07 13.6 56.5 51 3.8 38.8
00:40 1019 30.09 849 25.07 13.4 56.1 52 3.8 38.8
00:45 1019 30.09 849 25.07 13.4 56.2 51 3.6 38.4
00:50 1019 30.09 849 25.07 13.5 56.4 52 3.9 39
00:55 1019 30.09 849 25.07 13.6 56.4 50 3.3 38
01:00 1019 30.09 849 25.07 13.8 56.9 50 3.8 38.8
01:05 1019 30.09 849 25.07 13.9 57 50 3.7 38.7
01:10 1019 30.09 849 25.07 13.9 57 51 3.9 39
01:15 1019 30.09 849 25.07 13.8 56.9 51 3.9 39
01:20 1019 30.09 849 25.07 13.8 56.9 51 3.9 39.1
01:25 1019 30.09 849 25.07 13.8 56.8 51 3.9 39.1
01:30 1019 30.09 849 25.07 14.1 57.4 49 3.7 38.7
01:35 1019 30.09 849 25.07 14 57.2 51 4.1 39.3
01:40 1019 30.09 849 25.07 13.9 57 50 3.8 38.9
01:45 1019 30.09 849 25.07 14 57.3 51 4 39.3
01:50 1019 30.09 849 25.07 14.1 57.4 51 4.1 39.3
01:55 1019 30.09 849 25.07 14 57.2 51 4.2 39.5
02:00 1019 30.09 849 25.07 13.9 57.1 51 4.1 39.4
02:05 1019 30.09 849 25.07 13.8 56.8 52 4.3 39.7
02:10 1019 30.09 849 25.07 13.9 57 52 4.2 39.6
02:15 1019 30.09 849 25.07 14 57.1 51 4.1 39.4
02:20 1019 30.09 848 25.04 13.9 57.1 53 4.5 40
02:25 1019 30.09 848 25.04 13.6 56.4 53 4.4 39.8
02:30 1019 30.09 848 25.04 13.5 56.4 53 4.1 39.4
02:35 1019 30.09 848 25.04 13.8 56.9 52 4.2 39.5
02:40 1019 30.09 848 25.04 13.9 56.9 53 4.5 40
02:45 1019 30.09 848 25.04 13.5 56.3 54 4.4 40
02:50 1019 30.09 848 25.04 13.7 56.6 53 4.4 39.8
02:55 1019 30.09 848 25.04 13.4 56.1 54 4.4 39.9
03:00 1019 30.09 848 25.04 13.4 56.1 54 4.3 39.7
03:05 1019 30.09 848 25.04 13.6 56.5 54 4.5 40.1
03:10 1019 30.09 848 25.04 13.7 56.7 53 4.5 40
03:15 1019 30.09 848 25.04 14 57.2 51 4.2 39.6
03:20 1019 30.09 848 25.04 14.6 58.2 51 4.7 40.5
03:25 1019 30.09 848 25.04 14.4 58 52 4.8 40.6
03:30 1019 30.09 848 25.04 14.3 57.8 52 4.6 40.3
03:35 1019 30.09 848 25.04 14.4 57.9 52 4.7 40.4
03:40 1019 30.09 848 25.04 14 57.2 52 4.3 39.7
03:45 1019 30.09 848 25.04 14.3 57.7 52 4.8 40.6
03:50 1019 30.09 848 25.04 13.9 57.1 53 4.7 40.5
03:55 1019 30.09 848 25.04 13.7 56.7 54 4.7 40.5
04:00 1019 30.09 848 25.04 13.2 55.7 57 4.9 40.9
04:05 1019 30.09 848 25.04 13.1 55.5 55 4.4 39.9
04:10 1019 30.09 849 25.07 12.8 55.1 56 4.3 39.8
04:15 1019 30.09 848 25.04 12.8 55 55 4.1 39.3
04:20 1019 30.09 848 25.04 13.1 55.6 54 4.1 39.4
04:25 1020 30.12 849 25.07 13.3 55.9 56 4.8 40.6
04:30 1020 30.12 849 25.07 12.5 54.5 58 4.6 40.3
04:35 1020 30.12 849 25.07 12.3 54.1 58 4.2 39.6
04:40 1020 30.12 849 25.07 12.6 54.7 57 4.3 39.7
04:45 1020 30.12 849 25.07 12.6 54.8 59 4.8 40.7
04:50 1020 30.12 849 25.07 11.7 53.1 61 4.6 40.3
04:55 1020 30.12 849 25.07 11 51.9 64 4.5 40
05:00 1020 30.12 849 25.07 10.7 51.3 64 4.3 39.7
05:05 1020 30.12 849 25.07 10.7 51.2 65 4.4 39.9
05:10 1019 30.09 849 25.07 10.6 51.1 64 4 39.3
05:15 1019 30.09 849 25.07 11.2 52.1 62 4.2 39.5
05:20 1019 30.09 848 25.04 11.7 53.1 59 4.1 39.3
05:25 1019 30.09 848 25.04 12.1 53.8 58 4.2 39.5
05:30 1019 30.09 848 25.04 12.2 54 60 4.7 40.5
05:35 1019 30.09 848 25.04 11.4 52.6 62 4.4 39.8
05:40 1019 30.09 848 25.04 11.3 52.4 62 4.3 39.7
05:45 1019 30.09 848 25.04 11.5 52.7 60 4.1 39.4
05:50 1019 30.09 848 25.04 11.8 53.2 60 4.2 39.6
05:55 1019 30.09 848 25.04 11.9 53.3 59 4.2 39.5
06:00 1019 30.09 848 25.04 12.1 53.8 58 4.2 39.6
06:05 1019 30.09 848 25.04 12.2 54 59 4.4 40
06:10 1019 30.09 848 25.04 11.6 53 63 4.9 40.8
06:15 1019 30.09 848 25.04 11 51.9 63 4.3 39.7
06:20 1019 30.09 848 25.04 11.2 52.1 63 4.5 40.1
06:25 1018 30.06 848 25.04 11.3 52.3 62 4.2 39.6
06:30 1018 30.06 848 25.04 11.7 53 60 4.2 39.6
06:35 1018 30.06 847 25.01 12 53.6 59 4.3 39.7
06:40 1018 30.06 847 25.01 12.1 53.8 60 4.7 40.5
06:45 1018 30.06 847 25.01 11.7 53.1 61 4.5 40.1
06:50 1018 30.06 847 25.01 12 53.6 59 4.3 39.8
06:55 1018 30.06 847 25.01 12.4 54.4 57 4.3 39.7
07:00 1018 30.06 847 25.01 12.8 55.1 56 4.3 39.8
07:05 1018 30.06 847 25.01 13 55.4 55 4.3 39.8
07:10 1018 30.06 847 25.01 13.2 55.8 55 4.4 39.8
07:15 1018 30.06 847 25.01 13.3 55.9 55 4.5 40
07:20 1018 30.06 847 25.01 13.4 56.2 54 4.4 39.9
07:25 1018 30.06 847 25.01 13.4 56.2 56 4.8 40.7
07:30 1018 30.06 847 25.01 12.9 55.1 57 4.7 40.4
07:35 1018 30.06 847 25.01 12.9 55.2 55 4.2 39.5
07:40 1018 30.06 847 25.01 13.6 56.4 53 4.4 39.9
07:45 1018 30.06 847 25.01 13.7 56.6 54 4.5 40.2
07:50 1018 30.06 847 25.01 13.5 56.2 55 4.7 40.4
07:55 1018 30.06 847 25.01 13.6 56.4 53 4.2 39.5
08:00 1018 30.06 847 25.01 13.9 57 53 4.5 40.2
08:05 1018 30.06 847 25.01 14.1 57.4 51 4.2 39.5
08:10 1018 30.06 847 25.01 14.4 57.9 52 4.7 40.5
08:15 1018 30.06 847 25.01 14.2 57.6 52 4.6 40.2
08:20 1018 30.06 847 25.01 14.3 57.7 51 4.5 40
08:25 1018 30.06 847 25.01 14.4 57.9 51 4.5 40.2
08:30 1018 30.06 847 25.01 15 58.9 49 4.4 39.9
08:35 1017 30.03 847 25.01 15.2 59.3 49 4.7 40.4
08:40 1017 30.03 847 25.01 15.4 59.6 49 4.7 40.4
08:45 1017 30.03 847 25.01 15.4 59.8 48 4.7 40.5
08:50 1017 30.03 847 25.01 15.4 59.8 49 5 41
08:55 1017 30.03 847 25.01 15.5 59.8 50 5 41.1
09:00 1017 30.03 847 25.01 16.1 60.9 47 4.7 40.5
09:05 1017 30.03 847 25.01 16.5 61.8 47 5.2 41.3
09:10 1017 30.03 847 25.01 16.7 62 44 4.4 40
09:15 1018 30.06 847 25.01 17 62.6 49 6.3 43.4
09:20 1018 30.06 847 25.01 15 58.9 55 6.2 43.1
09:25 1018 30.06 847 25.01 14.1 57.3 57 5.7 42.3
09:30 1018 30.06 847 25.01 13.6 56.5 59 5.7 42.3
09:35 1018 30.06 847 25.01 13.5 56.2 58 5.5 42
09:40 1018 30.06 847 25.01 13.6 56.6 57 5.4 41.8
09:45 1018 30.06 847 25.01 13.9 57 57 5.6 42.1
09:50 1018 30.06 848 25.04 14 57.1 58 5.9 42.5
09:55 1019 30.09 848 25.04 13.1 55.5 66 6.8 44.2
10:00 1019 30.09 848 25.04 12.2 54 67 6.4 43.5
10:05 1019 30.09 848 25.04 12.1 53.7 67 6.2 43.1
10:10 1019 30.09 848 25.04 12 53.6 66 5.9 42.7
10:15 1019 30.09 848 25.04 12 53.6 66 5.9 42.7
10:20 1019 30.09 848 25.04 12.1 53.8 68 6.4 43.5
10:25 1019 30.09 848 25.04 12 53.5 69 6.5 43.7
10:30 1019 30.09 848 25.04 11.9 53.3 69 6.4 43.4
10:35 1018 30.06 848 25.04 12 53.7 70 6.8 44.3
10:40 1018 30.06 847 25.01 12 53.7 67 6 42.9
10:45 1018 30.06 847 25.01 12.5 54.4 68 6.8 44.2
10:50 1018 30.06 847 25.01 12.8 55.1 67 6.9 44.3
10:55 1018 30.06 847 25.01 13.4 56.1 67 7.4 45.3
11:00 1018 30.06 847 25.01 14.4 57.9 64 7.7 45.9
11:05 1018 30.06 847 25.01 15.5 59.9 56 6.8 44.2
11:10 1018 30.06 847 25.01 16.3 61.3 53 6.8 44.2
11:15 1018 30.06 847 25.01 17.2 62.9 49 6.4 43.5
11:20 1018 30.06 847 25.01 18.3 65 42 5.5 41.9
11:25 1018 30.06 847 25.01 18.8 65.9 45 6.9 44.4
11:30 1018 30.06 847 25.01 19.2 66.5 45 7.2 45
11:35 1018 30.06 847 25.01 19.3 66.8 43 6.6 43.9
11:40 1018 30.06 847 25.01 19.7 67.4 42 6.6 43.8
11:45 1018 30.06 847 25.01 19 66.1 44 6.4 43.6
11:50 1018 30.06 847 25.01 18.7 65.7 43 5.9 42.7
11:55 1018 30.06 847 25.01 18.9 66 42 5.8 42.5
12:00 1018 30.06 847 25.01 19 66.1 42 5.9 42.6
12:05 1018 30.06 847 25.01 18.8 65.8 41 5.4 41.8
12:10 1018 30.06 847 25.01 18.8 65.8 43 6 42.8
12:15 1018 30.06 847 25.01 19.1 66.4 41 5.6 42.2
12:20 1018 30.06 847 25.01 19.7 67.5 39 5.6 42.1
12:25 1018 30.06 847 25.01 19.8 67.6 39 5.6 42.1
12:30 1017 30.03 847 25.01 20 67.9 41 6.6 43.8
12:35 1017 30.03 847 25.01 19.9 67.9 39 5.9 42.6
12:40 1017 30.03 846 24.98 19 66.2 41 5.7 42.2
12:45 1017 30.03 846 24.98 18.7 65.6 42 5.7 42.3
12:50 1017 30.03 846 24.98 19.2 66.6 39 5.2 41.3
12:55 1017 30.03 846 24.98 19.9 67.9 39 5.6 42.2
13:00 1017 30.03 846 24.98 19.8 67.6 39 5.6 42.1
13:05 1017 30.03 846 24.98 20.2 68.4 39 6 42.7
13:10 1017 30.03 846 24.98 21 69.7 36 5.4 41.8
13:15 1017 30.03 846 24.98 21.8 71.3 34 5.6 42.1
13:20 1017 30.03 846 24.98 21.7 71.1 37 6.5 43.7
13:25 1017 30.03 846 24.98 21 69.7 36 5.4 41.7
13:30 1017 30.03 846 24.98 21.8 71.3 35 5.7 42.3
13:35 1017 30.03 846 24.98 22.2 72 34 5.7 42.3
13:40 1017 30.03 846 24.98 22.1 71.8 34 5.7 42.3
13:45 1016 30 846 24.98 22.3 72.1 33 5.3 41.6
13:50 1016 30 846 24.98 22 71.6 35 6 42.7
13:55 1016 30 845 24.95 21.9 71.4 36 6.4 43.6
14:00 1016 30 845 24.95 22.1 71.8 33 5.3 41.5
14:05 1016 30 845 24.95 22.5 72.4 36 7 44.5
14:10 1016 30 845 24.95 22 71.5 35 6 42.9
14:15 1016 30 845 24.95 21.7 71 36 6.2 43.1
14:20 1016 30 845 24.95 21.2 70.2 37 6.2 43.1
14:25 1016 30 845 24.95 21.2 70.2 37 6 42.8
14:30 1016 30 845 24.95 21.4 70.5 38 6.6 43.8
14:35 1016 30 845 24.95 21.2 70.1 41 7.6 45.7
14:40 1016 30 845 24.95 20.1 68.1 44 7.5 45.5
14:45 1016 30 845 24.95 20.3 68.6 41 6.9 44.5
14:50 1016 30 845 24.95 21.2 70.1 36 5.8 42.4
14:55 1016 30 845 24.95 22.1 71.9 32 4.8 40.6
15:00 1016 30 845 24.95 23.3 73.9 30 5 41
15:05 1016 30 845 24.95 22.6 72.8 31 4.9 40.8
15:10 1016 30 845 24.95 22.7 72.8 29 4 39.2
15:15 1016 30 845 24.95 22.7 72.9 29 3.9 39.1
15:20 1016 30 845 24.95 22.5 72.5 29 3.6 38.6
15:25 1016 30 845 24.95 22.5 72.6 28 3.5 38.4
15:30 1016 30 845 24.95 22 71.6 35 6.1 43
15:35 1016 30 846 24.98 18 64.4 44 5.7 42.3
15:40 1017 30.03 846 24.98 16.2 61.1 48 5.1 41.3
15:45 1017 30.03 846 24.98 15.1 59.2 52 5.3 41.6
15:50 1017 30.03 846 24.98 14.2 57.5 54 5.1 41.2
15:55 1017 30.03 846 24.98 13.8 56.8 55 4.9 40.8
16:00 1017 30.03 846 24.98 14.5 58.1 51 4.4 40
16:05 1017 30.03 846 24.98 14.9 58.8 51 4.8 40.7
16:10 1017 30.03 846 24.98 15 59 50 4.7 40.5
16:15 1017 30.03 846 24.98 14.8 58.7 50 4.5 40
16:20 1017 30.03 846 24.98 15.3 59.5 49 4.6 40.3
16:25 1017 30.03 846 24.98 15.4 59.8 49 4.8 40.6
16:30 1017 30.03 846 24.98 15.9 60.5 53 6.4 43.6
16:35 1017 30.03 846 24.98 16.5 61.7 52 6.6 43.9
16:40 1017 30.03 847 25.01 16.6 61.8 48 5.7 42.2
16:45 1017 30.03 847 25.01 16.4 61.5 46 4.9 40.7
16:50 1018 30.06 847 25.01 17.2 62.9 44 4.8 40.6
16:55 1018 30.06 847 25.01 17.6 63.7 42 4.8 40.6
17:00 1018 30.06 847 25.01 17.6 63.6 44 5.4 41.7
17:05 1018 30.06 847 25.01 16.9 62.4 46 5.2 41.4
17:10 1018 30.06 847 25.01 16.4 61.5 49 5.6 42.1
17:15 1018 30.06 847 25.01 16.1 61 50 5.8 42.4
17:20 1018 30.06 847 25.01 16 60.7 51 5.9 42.6
17:25 1018 30.06 847 25.01 15.7 60.3 53 6.3 43.4
17:30 1018 30.06 848 25.04 15.5 59.9 51 5.6 42
17:35 1018 30.06 848 25.04 15.2 59.4 56 6.5 43.7
17:40 1018 30.06 848 25.04 14.5 58 62 7.4 45.3
17:45 1019 30.09 848 25.04 13.5 56.3 68 7.8 46.1
17:50 1019 30.09 848 25.04 12.9 55.2 71 7.7 45.9
17:55 1019 30.09 848 25.04 12.3 54.1 76 8.2 46.7
18:00 1019 30.09 848 25.04 11.8 53.2 80 8.4 47.1
18:05 1018 30.06 848 25.04 11.1 52 82 8.2 46.8
18:10 1018 30.06 847 25.01 10.7 51.2 84 8 46.5
18:15 1018 30.06 847 25.01 10.6 51 84 8 46.3
18:20 1018 30.06 847 25.01 10.8 51.4 82 7.8 46
18:25 1018 30.06 847 25.01 10.8 51.5 82 7.9 46.2
18:30 1018 30.06 847 25.01 11.2 52.1 81 8 46.4
18:35 1018 30.06 847 25.01 11.3 52.3 79 7.9 46.2
18:40 1018 30.06 848 25.04 11.4 52.6 78 7.8 46.1
18:45 1019 30.09 848 25.04 11.4 52.4 82 8.3 47
18:50 1019 30.09 848 25.04 11 51.8 83 8.2 46.8
18:55 1019 30.09 848 25.04 10.8 51.5 86 8.5 47.4
19:00 1019 30.09 848 25.04 10.8 51.5 83 8.1 46.7
19:05 1019 30.09 848 25.04 10.9 51.6 84 8.3 46.9
19:10 1018 30.06 848 25.04 10.9 51.5 86 8.6 47.5
19:15 1018 30.06 848 25.04 10.5 50.9 87 8.4 47.1
19:20 1018 30.06 848 25.04 10.4 50.6 88 8.4 47.1
19:25 1018 30.06 847 25.01 10.3 50.5 87 8.3 46.9
19:30 1018 30.06 847 25.01 10.2 50.3 87 8.2 46.8
19:35 1018 30.06 847 25.01 10.1 50.2 88 8.2 46.8
19:40 1018 30.06 847 25.01 10.1 50.2 86 8 46.3
19:45 1018 30.06 847 25.01 10.1 50.2 86 7.9 46.2
19:50 1018 30.06 847 25.01 10.1 50.2 86 7.9 46.2
19:55 1018 30.06 847 25.01 10.1 50.2 86 8 46.3
20:00 1018 30.06 847 25.01 10.1 50.1 87 8 46.4
20:05 1018 30.06 847 25.01 10.1 50.1 86 7.8 46.1
20:10 1018 30.06 847 25.01 10.2 50.3 84 7.7 45.8
20:15 1018 30.06 847 25.01 10.4 50.7 84 7.8 46.1
20:20 1018 30.06 847 25.01 10.5 50.9 82 7.6 45.7
20:25 1018 30.06 847 25.01 10.7 51.2 82 7.8 46
20:30 1018 30.06 847 25.01 10.7 51.2 82 7.8 46
20:35 1019 30.09 848 25.04 10.8 51.4 81 7.6 45.6
20:40 1019 30.09 848 25.04 11 51.9 80 7.7 45.8
20:45 1018 30.06 848 25.04 10.9 51.6 81 7.8 46.1
20:50 1018 30.06 847 25.01 10.8 51.4 82 7.8 46
20:55 1018 30.06 847 25.01 10.8 51.5 80 7.6 45.6
21:00 1018 30.06 847 25.01 10.8 51.5 80 7.6 45.7
21:05 1018 30.06 847 25.01 11 51.7 75 6.8 44.2
21:10 1018 30.06 847 25.01 11.8 53.2 73 7.1 44.8
21:15 1018 30.06 847 25.01 11.3 52.3 78 7.6 45.7
21:20 1018 30.06 847 25.01 11 51.8 78 7.4 45.2
21:25 1018 30.06 847 25.01 11 51.9 78 7.3 45.2
21:30 1018 30.06 847 25.01 11 51.8 79 7.4 45.4
21:35 1018 30.06 847 25.01 10.9 51.5 80 7.6 45.7
21:40 1018 30.06 847 25.01 10.7 51.3 81 7.6 45.6
21:45 1018 30.06 847 25.01 10.8 51.4 79 7.4 45.3
21:50 1018 30.06 847 25.01 10.9 51.6 77 7 44.7
21:55 1018 30.06 847 25.01 11.2 52.1 78 7.5 45.4
22:00 1018 30.06 847 25.01 11 51.8 79 7.5 45.4
22:05 1018 30.06 847 25.01 11 51.7 77 7.2 44.9
22:10 1018 30.06 847 25.01 11.1 52 76 7 44.7
22:15 1018 30.06 847 25.01 11.3 52.3 76 7.2 45
22:20 1018 30.06 847 25.01 11.1 52.1 77 7.2 45
22:25 1018 30.06 847 25.01 11.1 51.9 77 7.2 45
22:30 1018 30.06 847 25.01 10.8 51.5 78 7.1 44.8
22:35 1018 30.06 847 25.01 10.9 51.5 77 7.1 44.7
22:40 1018 30.06 847 25.01 10.8 51.4 78 7.1 44.7
22:45 1018 30.06 847 25.01 10.8 51.4 77 7 44.6
22:50 1018 30.06 847 25.01 10.8 51.4 77 7 44.6
22:55 1018 30.06 847 25.01 10.7 51.3 77 6.8 44.3
23:00 1018 30.06 847 25.01 10.7 51.3 77 6.8 44.3
23:05 1018 30.06 847 25.01 10.8 51.4 76 6.8 44.3
23:10 1018 30.06 847 25.01 10.8 51.4 77 6.9 44.5
23:15 1018 30.06 847 25.01 10.7 51.3 76 6.6 43.9
23:20 1018 30.06 847 25.01 10.8 51.4 77 6.9 44.3
23:25 1018 30.06 847 25.01 10.5 51 79 7 44.6
23:30 1018 30.06 847 25.01 10.1 50.2 81 7.1 44.7
23:35 1018 30.06 847 25.01 9.6 49.2 83 6.8 44.3
23:40 1018 30.06 848 25.04 9.4 48.8 83 6.7 44.1
23:45 1019 30.09 848 25.04 9.5 49.2 82 6.6 43.9
23:50 1019 30.09 848 25.04 9.6 49.3 82 6.6 44
23:55 1019 30.09 848 25.04 9.7 49.4 82 6.8 44.3
24:00 1019 30.09 848 25.04 9.5 49.1 83 6.8 44.2